Terminal Aerodrome Forecast
Issued by NWS

Home | Current Version | Previous Version | Text Only | Print | Product List | Glossary On
Versions: 1 2 3 4 5 6 7 8 9 10 11 12 13 14 15 16 17
425
FTUS42 KGSP 202337
TAFGMU
TAF
KGMU 202337Z 2100/2124 21003KT P6SM FEW060 SCT150
     FM210500 20003KT 3SM BR BKN020
     FM210800 00000KT 2SM BR OVC004
     FM211100 00000KT 1/2SM FG OVC003
     FM211500 15004KT 3SM BR VCSH OVC005 PROB30 2115/2119 4SM -SHRA
      BR
     FM211900 08004KT 4SM -SHRA BR OVC007=

USA.gov is the U.S. government's official web portal to all federal, state and local government web resources and services.